sensor_id;sensor_type;location;lat;lon;timestamp;P1;durP1;ratioP1;P2;durP2;ratioP2
53151;SDS011;39234;53.158;6.322;2023-04-06T00:01:09;9.27;;;5.28;;
53151;SDS011;39234;53.158;6.322;2023-04-06T00:03:36;12.35;;;5.78;;
53151;SDS011;39234;53.158;6.322;2023-04-06T00:06:02;8.88;;;5.43;;
53151;SDS011;39234;53.158;6.322;2023-04-06T00:08:28;9.98;;;5.80;;
53151;SDS011;39234;53.158;6.322;2023-04-06T00:10:55;11.27;;;5.80;;
53151;SDS011;39234;53.158;6.322;2023-04-06T00:13:21;9.88;;;5.72;;
53151;SDS011;39234;53.158;6.322;2023-04-06T00:15:47;8.60;;;6.15;;
53151;SDS011;39234;53.158;6.322;2023-04-06T00:18:13;11.07;;;5.40;;
53151;SDS011;39234;53.158;6.322;2023-04-06T00:20:39;11.07;;;5.85;;
53151;SDS011;39234;53.158;6.322;2023-04-06T00:23:05;10.98;;;5.80;;
53151;SDS011;39234;53.158;6.322;2023-04-06T00:25:31;8.73;;;5.47;;
53151;SDS011;39234;53.158;6.322;2023-04-06T00:27:58;10.98;;;5.68;;
53151;SDS011;39234;53.158;6.322;2023-04-06T00:30:24;9.05;;;5.40;;
53151;SDS011;39234;53.158;6.322;2023-04-06T00:32:50;10.75;;;5.20;;
53151;SDS011;39234;53.158;6.322;2023-04-06T00:35:16;10.55;;;5.65;;
53151;SDS011;39234;53.158;6.322;2023-04-06T00:37:42;10.70;;;5.63;;
53151;SDS011;39234;53.158;6.322;2023-04-06T00:40:08;11.77;;;5.30;;
53151;SDS011;39234;53.158;6.322;2023-04-06T00:42:35;8.55;;;5.95;;
53151;SDS011;39234;53.158;6.322;2023-04-06T00:45:01;8.65;;;5.40;;
53151;SDS011;39234;53.158;6.322;2023-04-06T00:47:27;9.20;;;5.50;;
53151;SDS011;39234;53.158;6.322;2023-04-06T00:49:54;9.07;;;5.40;;
53151;SDS011;39234;53.158;6.322;2023-04-06T00:52:20;11.48;;;5.78;;
53151;SDS011;39234;53.158;6.322;2023-04-06T00:54:46;13.00;;;5.80;;
53151;SDS011;39234;53.158;6.322;2023-04-06T00:57:13;8.00;;;4.95;;
53151;SDS011;39234;53.158;6.322;2023-04-06T00:59:39;11.55;;;5.97;;
53151;SDS011;39234;53.158;6.322;2023-04-06T01:02:05;25.70;;;6.68;;
53151;SDS011;39234;53.158;6.322;2023-04-06T01:04:32;12.18;;;5.43;;
53151;SDS011;39234;53.158;6.322;2023-04-06T01:06:58;8.93;;;5.18;;
53151;SDS011;39234;53.158;6.322;2023-04-06T01:09:25;9.23;;;5.28;;
53151;SDS011;39234;53.158;6.322;2023-04-06T01:11:54;8.75;;;5.03;;
53151;SDS011;39234;53.158;6.322;2023-04-06T01:14:21;10.40;;;4.88;;
53151;SDS011;39234;53.158;6.322;2023-04-06T01:16:47;9.00;;;5.55;;
53151;SDS011;39234;53.158;6.322;2023-04-06T01:19:13;10.65;;;5.75;;
53151;SDS011;39234;53.158;6.322;2023-04-06T01:21:40;14.88;;;5.28;;
53151;SDS011;39234;53.158;6.322;2023-04-06T01:24:06;7.70;;;4.82;;
53151;SDS011;39234;53.158;6.322;2023-04-06T01:26:33;13.35;;;5.35;;
53151;SDS011;39234;53.158;6.322;2023-04-06T01:28:59;12.02;;;5.57;;
53151;SDS011;39234;53.158;6.322;2023-04-06T01:31:26;8.73;;;5.57;;
53151;SDS011;39234;53.158;6.322;2023-04-06T01:33:52;9.20;;;5.38;;
53151;SDS011;39234;53.158;6.322;2023-04-06T01:36:19;7.55;;;4.63;;
53151;SDS011;39234;53.158;6.322;2023-04-06T01:38:45;6.88;;;4.60;;
53151;SDS011;39234;53.158;6.322;2023-04-06T01:41:11;9.02;;;4.50;;
53151;SDS011;39234;53.158;6.322;2023-04-06T01:43:37;8.32;;;5.07;;
53151;SDS011;39234;53.158;6.322;2023-04-06T01:46:03;8.10;;;5.05;;
53151;SDS011;39234;53.158;6.322;2023-04-06T01:48:30;8.23;;;4.97;;
53151;SDS011;39234;53.158;6.322;2023-04-06T01:50:56;8.25;;;5.13;;
53151;SDS011;39234;53.158;6.322;2023-04-06T01:53:22;8.35;;;4.55;;
53151;SDS011;39234;53.158;6.322;2023-04-06T01:55:48;8.05;;;5.03;;
53151;SDS011;39234;53.158;6.322;2023-04-06T01:58:14;8.60;;;4.68;;
53151;SDS011;39234;53.158;6.322;2023-04-06T02:00:41;11.45;;;5.35;;
53151;SDS011;39234;53.158;6.322;2023-04-06T02:03:07;9.00;;;4.30;;
53151;SDS011;39234;53.158;6.322;2023-04-06T02:05:33;7.60;;;4.65;;
53151;SDS011;39234;53.158;6.322;2023-04-06T02:10:31;8.73;;;5.20;;
53151;SDS011;39234;53.158;6.322;2023-04-06T02:12:58;10.45;;;5.10;;
53151;SDS011;39234;53.158;6.322;2023-04-06T02:15:24;9.25;;;5.15;;
53151;SDS011;39234;53.158;6.322;2023-04-06T02:17:50;7.70;;;4.45;;
53151;SDS011;39234;53.158;6.322;2023-04-06T02:20:17;7.38;;;4.78;;
53151;SDS011;39234;53.158;6.322;2023-04-06T02:22:43;9.35;;;4.95;;
53151;SDS011;39234;53.158;6.322;2023-04-06T02:25:09;7.07;;;4.45;;
53151;SDS011;39234;53.158;6.322;2023-04-06T02:27:35;8.63;;;4.45;;
53151;SDS011;39234;53.158;6.322;2023-04-06T02:30:04;8.00;;;4.93;;
53151;SDS011;39234;53.158;6.322;2023-04-06T02:32:30;7.47;;;4.47;;
53151;SDS011;39234;53.158;6.322;2023-04-06T02:34:57;7.25;;;4.38;;
53151;SDS011;39234;53.158;6.322;2023-04-06T02:37:23;6.93;;;4.20;;
53151;SDS011;39234;53.158;6.322;2023-04-06T02:39:49;7.45;;;4.47;;
53151;SDS011;39234;53.158;6.322;2023-04-06T02:42:15;8.98;;;4.45;;
53151;SDS011;39234;53.158;6.322;2023-04-06T02:44:42;9.15;;;4.60;;
53151;SDS011;39234;53.158;6.322;2023-04-06T02:47:08;8.48;;;4.68;;
53151;SDS011;39234;53.158;6.322;2023-04-06T02:49:34;7.90;;;5.13;;
53151;SDS011;39234;53.158;6.322;2023-04-06T02:52:01;11.95;;;4.72;;
53151;SDS011;39234;53.158;6.322;2023-04-06T02:54:27;7.90;;;4.38;;
53151;SDS011;39234;53.158;6.322;2023-04-06T02:56:53;7.18;;;4.40;;
53151;SDS011;39234;53.158;6.322;2023-04-06T02:59:19;6.50;;;4.45;;
53151;SDS011;39234;53.158;6.322;2023-04-06T03:01:45;9.10;;;4.97;;
53151;SDS011;39234;53.158;6.322;2023-04-06T03:04:12;7.70;;;4.88;;
53151;SDS011;39234;53.158;6.322;2023-04-06T03:06:38;8.38;;;4.80;;
53151;SDS011;39234;53.158;6.322;2023-04-06T03:09:05;9.38;;;4.55;;
53151;SDS011;39234;53.158;6.322;2023-04-06T03:11:31;10.30;;;4.80;;
53151;SDS011;39234;53.158;6.322;2023-04-06T03:13:57;10.15;;;5.13;;
53151;SDS011;39234;53.158;6.322;2023-04-06T03:16:24;9.63;;;4.35;;
53151;SDS011;39234;53.158;6.322;2023-04-06T03:18:50;10.32;;;4.50;;
53151;SDS011;39234;53.158;6.322;2023-04-06T03:21:16;8.15;;;4.35;;
53151;SDS011;39234;53.158;6.322;2023-04-06T03:23:44;11.57;;;5.70;;
53151;SDS011;39234;53.158;6.322;2023-04-06T03:26:10;8.77;;;4.13;;
53151;SDS011;39234;53.158;6.322;2023-04-06T03:28:36;9.23;;;4.93;;
53151;SDS011;39234;53.158;6.322;2023-04-06T03:31:03;12.23;;;5.75;;
53151;SDS011;39234;53.158;6.322;2023-04-06T03:33:29;9.63;;;4.72;;
53151;SDS011;39234;53.158;6.322;2023-04-06T03:35:55;6.95;;;4.28;;
53151;SDS011;39234;53.158;6.322;2023-04-06T03:38:21;7.15;;;4.28;;
53151;SDS011;39234;53.158;6.322;2023-04-06T03:40:47;7.80;;;4.82;;
53151;SDS011;39234;53.158;6.322;2023-04-06T03:43:13;9.63;;;4.97;;
53151;SDS011;39234;53.158;6.322;2023-04-06T03:45:39;8.38;;;4.78;;
53151;SDS011;39234;53.158;6.322;2023-04-06T03:48:05;7.30;;;4.85;;
53151;SDS011;39234;53.158;6.322;2023-04-06T03:50:32;8.88;;;4.97;;
53151;SDS011;39234;53.158;6.322;2023-04-06T03:52:58;9.90;;;4.68;;
53151;SDS011;39234;53.158;6.322;2023-04-06T03:55:24;6.53;;;4.25;;
53151;SDS011;39234;53.158;6.322;2023-04-06T03:57:50;8.90;;;4.78;;
53151;SDS011;39234;53.158;6.322;2023-04-06T04:00:16;7.20;;;4.30;;
53151;SDS011;39234;53.158;6.322;2023-04-06T04:02:42;9.52;;;4.78;;
53151;SDS011;39234;53.158;6.322;2023-04-06T04:05:08;10.13;;;4.72;;
53151;SDS011;39234;53.158;6.322;2023-04-06T04:07:35;8.13;;;4.95;;
53151;SDS011;39234;53.158;6.322;2023-04-06T04:10:01;7.28;;;4.45;;
53151;SDS011;39234;53.158;6.322;2023-04-06T04:12:27;9.18;;;5.35;;
53151;SDS011;39234;53.158;6.322;2023-04-06T04:14:53;11.15;;;5.15;;
53151;SDS011;39234;53.158;6.322;2023-04-06T04:17:19;9.80;;;5.75;;
53151;SDS011;39234;53.158;6.322;2023-04-06T04:19:45;8.32;;;4.68;;
53151;SDS011;39234;53.158;6.322;2023-04-06T04:22:11;7.78;;;4.50;;
53151;SDS011;39234;53.158;6.322;2023-04-06T04:24:37;9.25;;;5.47;;
53151;SDS011;39234;53.158;6.322;2023-04-06T04:27:04;8.80;;;5.30;;
53151;SDS011;39234;53.158;6.322;2023-04-06T04:29:30;8.68;;;5.35;;
53151;SDS011;39234;53.158;6.322;2023-04-06T04:31:56;9.65;;;5.53;;
53151;SDS011;39234;53.158;6.322;2023-04-06T04:34:22;11.23;;;5.50;;
53151;SDS011;39234;53.158;6.322;2023-04-06T04:36:50;11.13;;;5.28;;
53151;SDS011;39234;53.158;6.322;2023-04-06T04:39:16;10.43;;;4.53;;
53151;SDS011;39234;53.158;6.322;2023-04-06T04:41:42;9.43;;;4.72;;
53151;SDS011;39234;53.158;6.322;2023-04-06T04:44:08;8.63;;;5.30;;
53151;SDS011;39234;53.158;6.322;2023-04-06T04:46:35;8.35;;;5.03;;
53151;SDS011;39234;53.158;6.322;2023-04-06T04:49:01;7.22;;;4.70;;
53151;SDS011;39234;53.158;6.322;2023-04-06T04:51:27;9.35;;;5.15;;
53151;SDS011;39234;53.158;6.322;2023-04-06T04:53:53;8.32;;;5.53;;
53151;SDS011;39234;53.158;6.322;2023-04-06T04:56:19;8.05;;;5.30;;
53151;SDS011;39234;53.158;6.322;2023-04-06T04:58:45;7.97;;;5.57;;
53151;SDS011;39234;53.158;6.322;2023-04-06T05:01:11;8.70;;;5.93;;
53151;SDS011;39234;53.158;6.322;2023-04-06T05:03:38;8.73;;;5.72;;
53151;SDS011;39234;53.158;6.322;2023-04-06T05:06:04;10.35;;;6.15;;
53151;SDS011;39234;53.158;6.322;2023-04-06T05:08:31;9.52;;;5.47;;
53151;SDS011;39234;53.158;6.322;2023-04-06T05:10:57;9.55;;;6.45;;
53151;SDS011;39234;53.158;6.322;2023-04-06T05:13:23;8.77;;;5.60;;
53151;SDS011;39234;53.158;6.322;2023-04-06T05:15:49;9.60;;;5.75;;
53151;SDS011;39234;53.158;6.322;2023-04-06T05:18:15;8.90;;;5.72;;
53151;SDS011;39234;53.158;6.322;2023-04-06T05:20:42;10.18;;;5.80;;
53151;SDS011;39234;53.158;6.322;2023-04-06T05:23:08;9.13;;;5.65;;
53151;SDS011;39234;53.158;6.322;2023-04-06T05:25:34;9.98;;;5.88;;
53151;SDS011;39234;53.158;6.322;2023-04-06T05:28:00;7.88;;;5.53;;
53151;SDS011;39234;53.158;6.322;2023-04-06T05:30:26;8.43;;;5.70;;
53151;SDS011;39234;53.158;6.322;2023-04-06T05:32:53;11.90;;;5.82;;
53151;SDS011;39234;53.158;6.322;2023-04-06T05:35:19;9.57;;;6.75;;
53151;SDS011;39234;53.158;6.322;2023-04-06T05:37:45;9.52;;;5.55;;
53151;SDS011;39234;53.158;6.322;2023-04-06T05:40:11;10.38;;;6.05;;
53151;SDS011;39234;53.158;6.322;2023-04-06T05:42:38;15.68;;;6.65;;
53151;SDS011;39234;53.158;6.322;2023-04-06T05:45:07;8.30;;;5.25;;
53151;SDS011;39234;53.158;6.322;2023-04-06T05:47:34;7.95;;;5.28;;
53151;SDS011;39234;53.158;6.322;2023-04-06T05:50:00;9.90;;;5.40;;
53151;SDS011;39234;53.158;6.322;2023-04-06T05:52:26;8.57;;;5.13;;
53151;SDS011;39234;53.158;6.322;2023-04-06T05:54:53;9.02;;;5.40;;
53151;SDS011;39234;53.158;6.322;2023-04-06T05:57:19;9.65;;;5.05;;
53151;SDS011;39234;53.158;6.322;2023-04-06T05:59:45;7.55;;;5.50;;
53151;SDS011;39234;53.158;6.322;2023-04-06T06:02:11;7.78;;;5.22;;
53151;SDS011;39234;53.158;6.322;2023-04-06T06:04:37;9.55;;;5.25;;
53151;SDS011;39234;53.158;6.322;2023-04-06T06:07:03;8.93;;;5.43;;
53151;SDS011;39234;53.158;6.322;2023-04-06T06:09:29;11.70;;;5.57;;
53151;SDS011;39234;53.158;6.322;2023-04-06T06:11:54;10.40;;;5.93;;
53151;SDS011;39234;53.158;6.322;2023-04-06T06:14:20;10.60;;;5.47;;
53151;SDS011;39234;53.158;6.322;2023-04-06T06:16:47;8.93;;;5.18;;
53151;SDS011;39234;53.158;6.322;2023-04-06T06:19:13;9.50;;;4.80;;
53151;SDS011;39234;53.158;6.322;2023-04-06T06:21:38;10.55;;;5.05;;
53151;SDS011;39234;53.158;6.322;2023-04-06T06:24:04;10.68;;;5.00;;
53151;SDS011;39234;53.158;6.322;2023-04-06T06:26:32;9.00;;;5.80;;
53151;SDS011;39234;53.158;6.322;2023-04-06T06:28:58;9.88;;;5.35;;
53151;SDS011;39234;53.158;6.322;2023-04-06T06:31:23;9.75;;;5.40;;
53151;SDS011;39234;53.158;6.322;2023-04-06T06:33:49;9.38;;;5.45;;
53151;SDS011;39234;53.158;6.322;2023-04-06T06:36:19;7.85;;;4.85;;
53151;SDS011;39234;53.158;6.322;2023-04-06T06:38:45;9.10;;;5.18;;
53151;SDS011;39234;53.158;6.322;2023-04-06T06:41:11;8.00;;;5.05;;
53151;SDS011;39234;53.158;6.322;2023-04-06T06:43:36;10.65;;;5.40;;
53151;SDS011;39234;53.158;6.322;2023-04-06T06:46:03;9.27;;;5.60;;
53151;SDS011;39234;53.158;6.322;2023-04-06T06:48:29;9.82;;;5.28;;
53151;SDS011;39234;53.158;6.322;2023-04-06T06:50:55;8.30;;;5.47;;
53151;SDS011;39234;53.158;6.322;2023-04-06T06:53:21;9.18;;;5.40;;
53151;SDS011;39234;53.158;6.322;2023-04-06T06:55:47;11.88;;;5.40;;
53151;SDS011;39234;53.158;6.322;2023-04-06T06:58:19;9.35;;;5.28;;
53151;SDS011;39234;53.158;6.322;2023-04-06T07:00:47;9.10;;;5.70;;
53151;SDS011;39234;53.158;6.322;2023-04-06T07:03:13;8.40;;;5.60;;
53151;SDS011;39234;53.158;6.322;2023-04-06T07:05:44;7.97;;;5.40;;
53151;SDS011;39234;53.158;6.322;2023-04-06T07:08:15;10.43;;;6.07;;
53151;SDS011;39234;53.158;6.322;2023-04-06T07:10:41;7.78;;;5.93;;
53151;SDS011;39234;53.158;6.322;2023-04-06T07:13:07;9.82;;;5.65;;
53151;SDS011;39234;53.158;6.322;2023-04-06T07:15:32;10.27;;;5.80;;
53151;SDS011;39234;53.158;6.322;2023-04-06T07:17:58;9.63;;;6.22;;
53151;SDS011;39234;53.158;6.322;2023-04-06T07:20:24;9.52;;;6.47;;
53151;SDS011;39234;53.158;6.322;2023-04-06T07:22:50;11.00;;;6.18;;
53151;SDS011;39234;53.158;6.322;2023-04-06T07:25:16;10.90;;;6.45;;
53151;SDS011;39234;53.158;6.322;2023-04-06T07:27:42;10.98;;;6.28;;
53151;SDS011;39234;53.158;6.322;2023-04-06T07:30:07;13.73;;;6.78;;
53151;SDS011;39234;53.158;6.322;2023-04-06T07:32:33;10.85;;;6.80;;
53151;SDS011;39234;53.158;6.322;2023-04-06T07:35:00;10.25;;;6.40;;
53151;SDS011;39234;53.158;6.322;2023-04-06T07:37:26;11.27;;;6.97;;
53151;SDS011;39234;53.158;6.322;2023-04-06T07:39:52;8.13;;;6.40;;
53151;SDS011;39234;53.158;6.322;2023-04-06T07:42:18;11.60;;;6.18;;
53151;SDS011;39234;53.158;6.322;2023-04-06T07:44:44;13.75;;;7.88;;
53151;SDS011;39234;53.158;6.322;2023-04-06T07:47:10;14.50;;;7.18;;
53151;SDS011;39234;53.158;6.322;2023-04-06T07:49:36;10.02;;;6.78;;
53151;SDS011;39234;53.158;6.322;2023-04-06T07:52:02;9.10;;;6.93;;
53151;SDS011;39234;53.158;6.322;2023-04-06T07:54:28;8.93;;;6.53;;
53151;SDS011;39234;53.158;6.322;2023-04-06T07:56:54;12.45;;;7.05;;
53151;SDS011;39234;53.158;6.322;2023-04-06T07:59:19;10.38;;;6.95;;
53151;SDS011;39234;53.158;6.322;2023-04-06T08:01:45;10.98;;;6.63;;
53151;SDS011;39234;53.158;6.322;2023-04-06T08:04:11;9.93;;;6.78;;
53151;SDS011;39234;53.158;6.322;2023-04-06T08:06:37;10.60;;;6.70;;
53151;SDS011;39234;53.158;6.322;2023-04-06T08:09:02;9.77;;;7.28;;
53151;SDS011;39234;53.158;6.322;2023-04-06T08:11:28;10.50;;;7.18;;
53151;SDS011;39234;53.158;6.322;2023-04-06T08:13:54;11.15;;;7.20;;
53151;SDS011;39234;53.158;6.322;2023-04-06T08:16:22;11.77;;;7.43;;
53151;SDS011;39234;53.158;6.322;2023-04-06T08:18:49;9.65;;;7.07;;
53151;SDS011;39234;53.158;6.322;2023-04-06T08:21:15;11.43;;;6.63;;
53151;SDS011;39234;53.158;6.322;2023-04-06T08:23:40;10.25;;;6.80;;
53151;SDS011;39234;53.158;6.322;2023-04-06T08:26:06;13.25;;;7.22;;
53151;SDS011;39234;53.158;6.322;2023-04-06T08:28:32;11.35;;;6.93;;
53151;SDS011;39234;53.158;6.322;2023-04-06T08:31:02;9.82;;;6.82;;
53151;SDS011;39234;53.158;6.322;2023-04-06T08:33:29;9.10;;;6.35;;
53151;SDS011;39234;53.158;6.322;2023-04-06T08:35:55;10.25;;;7.03;;
53151;SDS011;39234;53.158;6.322;2023-04-06T08:38:21;11.07;;;7.32;;
53151;SDS011;39234;53.158;6.322;2023-04-06T08:40:46;11.02;;;7.15;;
53151;SDS011;39234;53.158;6.322;2023-04-06T08:43:14;11.15;;;6.95;;
53151;SDS011;39234;53.158;6.322;2023-04-06T08:45:45;10.48;;;7.15;;
53151;SDS011;39234;53.158;6.322;2023-04-06T08:48:11;11.32;;;7.43;;
53151;SDS011;39234;53.158;6.322;2023-04-06T08:50:38;10.25;;;6.90;;
53151;SDS011;39234;53.158;6.322;2023-04-06T08:53:05;11.43;;;6.78;;
53151;SDS011;39234;53.158;6.322;2023-04-06T08:55:31;13.77;;;7.45;;
53151;SDS011;39234;53.158;6.322;2023-04-06T08:57:57;10.73;;;7.38;;
53151;SDS011;39234;53.158;6.322;2023-04-06T09:00:24;10.93;;;7.82;;
53151;SDS011;39234;53.158;6.322;2023-04-06T09:02:51;12.98;;;7.35;;
53151;SDS011;39234;53.158;6.322;2023-04-06T09:05:20;11.30;;;7.75;;
53151;SDS011;39234;53.158;6.322;2023-04-06T09:07:46;14.75;;;8.50;;
53151;SDS011;39234;53.158;6.322;2023-04-06T09:10:12;11.63;;;8.00;;
53151;SDS011;39234;53.158;6.322;2023-04-06T09:12:38;13.40;;;8.35;;
53151;SDS011;39234;53.158;6.322;2023-04-06T09:15:04;13.50;;;8.10;;
53151;SDS011;39234;53.158;6.322;2023-04-06T09:17:31;14.40;;;8.13;;
53151;SDS011;39234;53.158;6.322;2023-04-06T09:20:02;17.17;;;8.98;;
53151;SDS011;39234;53.158;6.322;2023-04-06T09:22:38;16.27;;;9.57;;
53151;SDS011;39234;53.158;6.322;2023-04-06T09:25:04;13.63;;;9.50;;
53151;SDS011;39234;53.158;6.322;2023-04-06T09:27:31;17.98;;;10.07;;
53151;SDS011;39234;53.158;6.322;2023-04-06T09:30:03;20.13;;;10.55;;
53151;SDS011;39234;53.158;6.322;2023-04-06T09:32:30;14.43;;;9.53;;
53151;SDS011;39234;53.158;6.322;2023-04-06T09:35:05;16.33;;;9.85;;
53151;SDS011;39234;53.158;6.322;2023-04-06T09:37:34;15.52;;;10.23;;
53151;SDS011;39234;53.158;6.322;2023-04-06T09:40:04;17.55;;;11.43;;
53151;SDS011;39234;53.158;6.322;2023-04-06T09:42:32;14.82;;;10.32;;
53151;SDS011;39234;53.158;6.322;2023-04-06T09:44:59;15.63;;;10.48;;
53151;SDS011;39234;53.158;6.322;2023-04-06T09:47:24;16.77;;;10.80;;
53151;SDS011;39234;53.158;6.322;2023-04-06T09:49:55;17.35;;;10.65;;
53151;SDS011;39234;53.158;6.322;2023-04-06T09:52:24;15.05;;;10.80;;
53151;SDS011;39234;53.158;6.322;2023-04-06T09:55:03;18.63;;;11.23;;
53151;SDS011;39234;53.158;6.322;2023-04-06T09:57:50;19.92;;;12.90;;
53151;SDS011;39234;53.158;6.322;2023-04-06T10:00:26;16.38;;;11.38;;
53151;SDS011;39234;53.158;6.322;2023-04-06T10:05:32;20.63;;;13.20;;
53151;SDS011;39234;53.158;6.322;2023-04-06T10:08:11;17.70;;;12.57;;
53151;SDS011;39234;53.158;6.322;2023-04-06T10:10:38;18.70;;;13.02;;
53151;SDS011;39234;53.158;6.322;2023-04-06T10:13:04;18.40;;;12.88;;
53151;SDS011;39234;53.158;6.322;2023-04-06T10:15:31;18.52;;;12.40;;
53151;SDS011;39234;53.158;6.322;2023-04-06T10:18:00;18.35;;;12.43;;
53151;SDS011;39234;53.158;6.322;2023-04-06T10:23:05;22.75;;;13.38;;
53151;SDS011;39234;53.158;6.322;2023-04-06T10:25:51;18.55;;;13.90;;
53151;SDS011;39234;53.158;6.322;2023-04-06T10:28:19;20.05;;;13.65;;
53151;SDS011;39234;53.158;6.322;2023-04-06T10:30:45;20.00;;;13.43;;
53151;SDS011;39234;53.158;6.322;2023-04-06T10:33:14;20.92;;;13.30;;
53151;SDS011;39234;53.158;6.322;2023-04-06T10:35:44;18.33;;;13.55;;
53151;SDS011;39234;53.158;6.322;2023-04-06T10:38:11;19.95;;;14.32;;
53151;SDS011;39234;53.158;6.322;2023-04-06T10:40:39;24.48;;;17.65;;
53151;SDS011;39234;53.158;6.322;2023-04-06T10:43:12;22.98;;;14.75;;
53151;SDS011;39234;53.158;6.322;2023-04-06T10:45:39;23.73;;;15.88;;
53151;SDS011;39234;53.158;6.322;2023-04-06T10:48:15;22.67;;;15.88;;
53151;SDS011;39234;53.158;6.322;2023-04-06T10:50:52;21.92;;;16.77;;
53151;SDS011;39234;53.158;6.322;2023-04-06T10:53:21;28.52;;;19.50;;
53151;SDS011;39234;53.158;6.322;2023-04-06T10:55:52;24.77;;;18.63;;
53151;SDS011;39234;53.158;6.322;2023-04-06T10:58:24;26.42;;;18.85;;
53151;SDS011;39234;53.158;6.322;2023-04-06T11:00:53;28.75;;;19.70;;
53151;SDS011;39234;53.158;6.322;2023-04-06T11:03:20;24.85;;;18.20;;
53151;SDS011;39234;53.158;6.322;2023-04-06T11:05:47;25.20;;;18.73;;
53151;SDS011;39234;53.158;6.322;2023-04-06T11:08:32;26.45;;;19.50;;
53151;SDS011;39234;53.158;6.322;2023-04-06T11:11:05;27.35;;;19.27;;
53151;SDS011;39234;53.158;6.322;2023-04-06T11:13:44;26.83;;;18.95;;
53151;SDS011;39234;53.158;6.322;2023-04-06T11:16:17;25.75;;;17.60;;
53151;SDS011;39234;53.158;6.322;2023-04-06T11:18:51;24.58;;;18.13;;
53151;SDS011;39234;53.158;6.322;2023-04-06T11:21:34;25.77;;;18.30;;
53151;SDS011;39234;53.158;6.322;2023-04-06T11:26:41;25.55;;;18.17;;
53151;SDS011;39234;53.158;6.322;2023-04-06T11:29:10;25.15;;;18.27;;
53151;SDS011;39234;53.158;6.322;2023-04-06T11:31:40;24.73;;;18.15;;
53151;SDS011;39234;53.158;6.322;2023-04-06T11:34:15;28.10;;;17.23;;
53151;SDS011;39234;53.158;6.322;2023-04-06T11:36:43;28.52;;;18.83;;
53151;SDS011;39234;53.158;6.322;2023-04-06T11:39:10;24.17;;;18.77;;
53151;SDS011;39234;53.158;6.322;2023-04-06T11:41:37;24.42;;;18.05;;
53151;SDS011;39234;53.158;6.322;2023-04-06T11:44:03;25.65;;;18.85;;
53151;SDS011;39234;53.158;6.322;2023-04-06T11:46:30;23.80;;;17.73;;
53151;SDS011;39234;53.158;6.322;2023-04-06T11:48:59;23.95;;;17.48;;
53151;SDS011;39234;53.158;6.322;2023-04-06T11:51:26;27.00;;;17.70;;
53151;SDS011;39234;53.158;6.322;2023-04-06T11:53:52;25.65;;;18.48;;
53151;SDS011;39234;53.158;6.322;2023-04-06T11:56:25;27.58;;;18.15;;
53151;SDS011;39234;53.158;6.322;2023-04-06T11:58:55;27.20;;;17.67;;
53151;SDS011;39234;53.158;6.322;2023-04-06T12:01:23;24.45;;;17.77;;
53151;SDS011;39234;53.158;6.322;2023-04-06T12:03:50;25.48;;;16.90;;
53151;SDS011;39234;53.158;6.322;2023-04-06T12:06:17;22.33;;;17.77;;
53151;SDS011;39234;53.158;6.322;2023-04-06T12:08:43;22.67;;;17.17;;
53151;SDS011;39234;53.158;6.322;2023-04-06T12:11:10;23.70;;;17.48;;
53151;SDS011;39234;53.158;6.322;2023-04-06T12:13:36;24.83;;;18.55;;
53151;SDS011;39234;53.158;6.322;2023-04-06T12:16:02;22.77;;;16.92;;
53151;SDS011;39234;53.158;6.322;2023-04-06T12:18:28;28.30;;;17.30;;
53151;SDS011;39234;53.158;6.322;2023-04-06T12:20:55;23.85;;;16.73;;
53151;SDS011;39234;53.158;6.322;2023-04-06T12:23:20;26.08;;;17.80;;
53151;SDS011;39234;53.158;6.322;2023-04-06T12:25:46;28.25;;;18.00;;
53151;SDS011;39234;53.158;6.322;2023-04-06T12:28:12;26.80;;;18.33;;
53151;SDS011;39234;53.158;6.322;2023-04-06T12:30:38;26.38;;;17.92;;
53151;SDS011;39234;53.158;6.322;2023-04-06T12:33:05;25.88;;;19.02;;
53151;SDS011;39234;53.158;6.322;2023-04-06T12:35:34;25.13;;;17.50;;
53151;SDS011;39234;53.158;6.322;2023-04-06T12:38:01;27.58;;;18.20;;
53151;SDS011;39234;53.158;6.322;2023-04-06T12:40:27;23.60;;;17.95;;
53151;SDS011;39234;53.158;6.322;2023-04-06T12:42:53;24.60;;;18.48;;
53151;SDS011;39234;53.158;6.322;2023-04-06T12:45:19;25.40;;;17.83;;
53151;SDS011;39234;53.158;6.322;2023-04-06T12:47:45;25.77;;;17.42;;
53151;SDS011;39234;53.158;6.322;2023-04-06T12:50:10;29.77;;;20.33;;
53151;SDS011;39234;53.158;6.322;2023-04-06T12:52:36;27.30;;;18.15;;
53151;SDS011;39234;53.158;6.322;2023-04-06T12:55:02;22.80;;;16.90;;
53151;SDS011;39234;53.158;6.322;2023-04-06T12:57:30;22.73;;;16.90;;
53151;SDS011;39234;53.158;6.322;2023-04-06T12:59:56;25.80;;;17.80;;
53151;SDS011;39234;53.158;6.322;2023-04-06T13:02:22;22.65;;;17.50;;
53151;SDS011;39234;53.158;6.322;2023-04-06T13:04:48;24.15;;;17.20;;
53151;SDS011;39234;53.158;6.322;2023-04-06T13:07:15;22.85;;;16.58;;
53151;SDS011;39234;53.158;6.322;2023-04-06T13:09:41;22.50;;;14.20;;
53151;SDS011;39234;53.158;6.322;2023-04-06T13:12:06;16.77;;;10.82;;
53151;SDS011;39234;53.158;6.322;2023-04-06T13:14:32;16.35;;;10.98;;
53151;SDS011;39234;53.158;6.322;2023-04-06T13:16:58;15.73;;;11.45;;
53151;SDS011;39234;53.158;6.322;2023-04-06T13:19:25;18.50;;;12.45;;
53151;SDS011;39234;53.158;6.322;2023-04-06T13:21:51;21.05;;;14.73;;
53151;SDS011;39234;53.158;6.322;2023-04-06T13:24:17;19.42;;;13.48;;
53151;SDS011;39234;53.158;6.322;2023-04-06T13:26:44;18.58;;;12.48;;
53151;SDS011;39234;53.158;6.322;2023-04-06T13:29:10;15.65;;;11.32;;
53151;SDS011;39234;53.158;6.322;2023-04-06T13:31:36;15.30;;;11.23;;
53151;SDS011;39234;53.158;6.322;2023-04-06T13:34:03;18.83;;;11.20;;
53151;SDS011;39234;53.158;6.322;2023-04-06T13:36:28;16.25;;;10.85;;
53151;SDS011;39234;53.158;6.322;2023-04-06T13:38:54;15.60;;;9.70;;
53151;SDS011;39234;53.158;6.322;2023-04-06T13:41:21;15.10;;;9.50;;
53151;SDS011;39234;53.158;6.322;2023-04-06T13:43:47;13.20;;;8.57;;
53151;SDS011;39234;53.158;6.322;2023-04-06T13:46:13;12.77;;;7.40;;
53151;SDS011;39234;53.158;6.322;2023-04-06T13:48:39;13.70;;;8.35;;
53151;SDS011;39234;53.158;6.322;2023-04-06T13:51:12;12.75;;;9.02;;
53151;SDS011;39234;53.158;6.322;2023-04-06T13:53:39;16.80;;;9.55;;
53151;SDS011;39234;53.158;6.322;2023-04-06T13:56:06;14.00;;;9.07;;
53151;SDS011;39234;53.158;6.322;2023-04-06T13:58:32;13.77;;;9.73;;
53151;SDS011;39234;53.158;6.322;2023-04-06T14:01:05;14.55;;;9.02;;
53151;SDS011;39234;53.158;6.322;2023-04-06T14:03:34;12.15;;;8.70;;
53151;SDS011;39234;53.158;6.322;2023-04-06T14:06:01;15.77;;;10.63;;
53151;SDS011;39234;53.158;6.322;2023-04-06T14:08:34;13.02;;;9.40;;
53151;SDS011;39234;53.158;6.322;2023-04-06T14:10:59;13.77;;;8.98;;
53151;SDS011;39234;53.158;6.322;2023-04-06T14:13:25;13.15;;;9.00;;
53151;SDS011;39234;53.158;6.322;2023-04-06T14:15:54;17.23;;;10.65;;
53151;SDS011;39234;53.158;6.322;2023-04-06T14:18:20;13.27;;;10.40;;
53151;SDS011;39234;53.158;6.322;2023-04-06T14:20:57;14.52;;;9.38;;
53151;SDS011;39234;53.158;6.322;2023-04-06T14:23:23;15.85;;;9.15;;
53151;SDS011;39234;53.158;6.322;2023-04-06T14:26:00;12.20;;;8.35;;
53151;SDS011;39234;53.158;6.322;2023-04-06T14:28:30;14.60;;;9.32;;
53151;SDS011;39234;53.158;6.322;2023-04-06T14:31:01;12.10;;;8.63;;
53151;SDS011;39234;53.158;6.322;2023-04-06T14:33:34;12.93;;;8.77;;
53151;SDS011;39234;53.158;6.322;2023-04-06T14:36:02;12.15;;;8.57;;
53151;SDS011;39234;53.158;6.322;2023-04-06T14:38:28;15.20;;;9.80;;
53151;SDS011;39234;53.158;6.322;2023-04-06T14:40:54;12.68;;;9.43;;
53151;SDS011;39234;53.158;6.322;2023-04-06T14:43:21;13.27;;;9.38;;
53151;SDS011;39234;53.158;6.322;2023-04-06T14:45:46;13.73;;;8.38;;